Time;durP1;ratioP1;P1;durP2;ratioP2;P2;SDS_P1;SDS_P2;PMS_P1;PMS_P2;Temp;Humidity;BMP_temperature;BMP_pressure;BME280_temperature;BME280_humidity;BME280_pressure;Samples;Min_cycle;Max_cycle;Signal;HPM_P1;HPM_P2
2022/07/26 04:00:28;;;;;;;4.60;3.13;;;21.30;99.90;;;;;;6073799;23;20374;-74
2022/07/26 04:02:54;;;;;;;4.13;3.00;;;21.30;99.90;;;;;;4985920;28;20962;-74
2022/07/26 04:05:21;;;;;;;5.00;2.80;;;21.30;99.90;;;;;;4985299;28;20491;-74
2022/07/26 04:07:48;;;;;;;4.33;3.43;;;21.20;99.90;;;;;;4985375;28;20843;-74
2022/07/26 04:10:15;;;;;;;5.60;3.53;;;21.30;99.90;;;;;;4985608;28;20482;-74
2022/07/26 04:12:42;;;;;;;3.57;2.90;;;21.20;99.90;;;;;;4986587;28;20464;-74
2022/07/26 04:15:10;;;;;;;4.50;2.90;;;21.20;99.90;;;;;;4985668;28;20451;-74
2022/07/26 04:17:38;;;;;;;5.67;2.80;;;21.20;99.90;;;;;;4986206;28;21064;-74
2022/07/26 04:20:07;;;;;;;2.83;2.53;;;21.20;99.90;;;;;;4985848;28;20462;-74
2022/07/26 04:22:34;;;;;;;3.63;3.00;;;21.20;99.90;;;;;;4985702;28;20999;-74
2022/07/26 04:25:02;;;;;;;3.60;2.70;;;21.20;99.90;;;;;;4985303;28;20499;-74
2022/07/26 04:27:29;;;;;;;5.60;2.83;;;21.20;99.90;;;;;;4986228;28;20462;-75
2022/07/26 04:29:55;;;;;;;4.37;3.30;;;21.20;99.90;;;;;;4985955;28;20467;-76
2022/07/26 04:32:22;;;;;;;4.90;3.30;;;21.10;99.90;;;;;;4985544;28;20486;-75
2022/07/26 04:34:50;;;;;;;4.60;2.90;;;21.10;99.90;;;;;;4984751;28;20957;-75
2022/07/26 04:37:17;;;;;;;4.40;3.00;;;21.10;99.90;;;;;;4985962;28;20467;-70
2022/07/26 04:39:44;;;;;;;4.57;3.30;;;21.00;99.90;;;;;;4985872;28;20459;-70
2022/07/26 04:42:11;;;;;;;3.63;2.93;;;21.00;99.90;;;;;;4986038;28;20482;-70
2022/07/26 04:44:38;;;;;;;4.60;2.90;;;21.00;99.90;;;;;;4984971;28;21041;-70
2022/07/26 04:47:05;;;;;;;4.33;2.90;;;21.00;99.90;;;;;;4985950;28;20468;-70
2022/07/26 04:49:32;;;;;;;4.23;2.70;;;20.90;99.90;;;;;;4985434;28;20558;-70
2022/07/26 04:52:00;;;;;;;3.17;2.87;;;20.90;99.90;;;;;;4985468;28;20594;-70
2022/07/26 04:54:27;;;;;;;4.23;3.50;;;20.90;99.90;;;;;;4985118;28;20471;-70
2022/07/26 04:56:54;;;;;;;3.73;3.20;;;20.90;99.90;;;;;;4985909;28;20466;-70
2022/07/26 04:59:21;;;;;;;5.10;3.53;;;20.80;99.90;;;;;;4985935;28;20955;-70
2022/07/26 05:01:48;;;;;;;10.27;4.43;;;20.90;99.90;;;;;;4988996;28;20582;-69
2022/07/26 05:04:14;;;;;;;5.17;3.70;;;20.80;99.90;;;;;;4988889;28;20468;-71
2022/07/26 05:06:42;;;;;;;6.93;3.63;;;20.70;99.90;;;;;;4989331;28;20455;-70
2022/07/26 05:09:10;;;;;;;3.90;3.47;;;20.70;99.90;;;;;;4989275;28;20468;-71
2022/07/26 05:11:37;;;;;;;4.40;3.40;;;20.70;99.90;;;;;;4989163;28;20584;-76
2022/07/26 05:14:04;;;;;;;4.97;2.90;;;20.70;99.90;;;;;;4988981;28;20452;-76
2022/07/26 05:16:31;;;;;;;5.50;4.00;;;20.60;99.90;;;;;;4989172;28;20455;-76
2022/07/26 05:18:58;;;;;;;4.93;3.23;;;20.60;99.90;;;;;;4989012;28;20928;-75
2022/07/26 05:21:26;;;;;;;3.37;3.07;;;20.60;99.90;;;;;;4989568;28;20482;-76
2022/07/26 05:23:53;;;;;;;4.60;3.47;;;20.70;99.90;;;;;;4989200;28;20459;-76
2022/07/26 05:26:21;;;;;;;5.47;3.60;;;20.70;99.90;;;;;;4988327;28;20495;-76
2022/07/26 05:28:49;;;;;;;4.40;3.73;;;20.80;99.90;;;;;;4988965;28;20470;-75
2022/07/26 05:31:16;;;;;;;4.20;3.40;;;20.80;99.90;;;;;;4988843;28;20509;-76
2022/07/26 05:33:42;;;;;;;4.37;3.93;;;20.80;99.90;;;;;;4989177;28;20478;-75
2022/07/26 05:36:09;;;;;;;5.60;4.10;;;20.80;99.90;;;;;;4987964;28;20863;-75
2022/07/26 05:38:36;;;;;;;4.57;3.43;;;20.90;99.90;;;;;;4987311;28;20467;-75
2022/07/26 05:41:03;;;;;;;5.03;3.50;;;20.90;99.90;;;;;;4988125;28;20491;-76
2022/07/26 05:43:32;;;;;;;5.07;3.47;;;20.90;99.90;;;;;;4987355;28;20470;-76
2022/07/26 05:45:59;;;;;;;4.43;3.30;;;21.00;99.90;;;;;;4987283;28;20554;-76
2022/07/26 05:48:26;;;;;;;6.40;4.73;;;20.90;99.90;;;;;;4987555;28;20460;-76
2022/07/26 05:50:52;;;;;;;9.50;4.20;;;20.90;99.90;;;;;;4987619;28;20479;-76
2022/07/26 05:53:20;;;;;;;8.13;3.67;;;21.00;99.90;;;;;;4987599;28;20473;-76
2022/07/26 05:55:46;;;;;;;5.83;3.90;;;21.00;99.90;;;;;;4986957;28;20459;-76
2022/07/26 05:58:13;;;;;;;3.60;3.23;;;21.00;99.90;;;;;;4987163;28;20456;-77
2022/07/26 06:00:42;;;;;;;4.30;3.60;;;21.00;99.90;;;;;;4987366;28;20487;-75
2022/07/26 06:03:21;;;;;;;5.13;3.50;;;21.00;99.90;;;;;;4987258;28;20982;-76
2022/07/26 06:05:49;;;;;;;3.70;3.40;;;21.10;99.90;;;;;;4986556;28;20495;-76
2022/07/26 06:08:16;;;;;;;4.00;3.40;;;21.10;99.90;;;;;;4986722;28;20466;-76
2022/07/26 06:10:43;;;;;;;4.80;3.30;;;21.10;99.90;;;;;;4986328;28;20853;-76
2022/07/26 06:13:10;;;;;;;4.27;3.20;;;21.00;99.90;;;;;;4987393;28;20464;-76
2022/07/26 06:15:37;;;;;;;3.70;3.20;;;20.90;99.90;;;;;;4987439;28;20482;-76
2022/07/26 06:18:06;;;;;;;5.63;3.30;;;20.90;99.90;;;;;;4986474;28;20510;-76
2022/07/26 06:20:33;;;;;;;6.50;3.00;;;20.90;99.90;;;;;;4987789;28;20483;-76
2022/07/26 06:23:00;;;;;;;8.33;3.47;;;20.90;99.90;;;;;;4987800;28;21319;-76
2022/07/26 06:25:27;;;;;;;9.33;4.13;;;20.90;99.90;;;;;;4987456;28;20499;-76
2022/07/26 06:27:54;;;;;;;6.33;3.07;;;20.90;99.90;;;;;;4988099;28;20466;-76
2022/07/26 06:30:21;;;;;;;6.37;3.40;;;20.80;99.90;;;;;;4987879;28;20470;-76
2022/07/26 06:32:47;;;;;;;7.50;3.60;;;20.80;99.90;;;;;;4987874;28;20467;-75
2022/07/26 06:35:16;;;;;;;5.47;3.53;;;20.70;99.90;;;;;;4987009;28;20456;-75
2022/07/26 06:37:43;;;;;;;5.43;2.90;;;20.70;99.90;;;;;;4987815;28;20471;-75
2022/07/26 06:40:11;;;;;;;6.70;3.97;;;20.70;99.90;;;;;;4987837;28;20895;-75
2022/07/26 06:42:38;;;;;;;6.43;3.30;;;20.80;99.90;;;;;;4987614;28;20460;-76
2022/07/26 06:45:06;;;;;;;4.80;3.23;;;20.80;99.90;;;;;;4987132;28;20462;-75
2022/07/26 06:47:34;;;;;;;11.90;2.93;;;20.80;99.90;;;;;;4987528;28;20955;-76
2022/07/26 06:50:01;;;;;;;5.33;3.30;;;20.80;99.90;;;;;;4987286;28;20455;-75
2022/07/26 06:52:31;;;;;;;3.93;3.00;;;20.70;99.90;;;;;;4986754;28;20488;-76
2022/07/26 06:55:08;;;;;;;7.63;3.43;;;20.80;99.90;;;;;;4986590;28;20455;-76
2022/07/26 06:57:35;;;;;;;6.77;2.47;;;20.90;99.90;;;;;;4987438;28;20470;-76
2022/07/26 07:00:02;;;;;;;8.87;2.97;;;20.90;99.90;;;;;;4987518;28;20459;-76
2022/07/26 07:02:29;;;;;;;3.17;2.43;;;20.90;99.90;;;;;;4986918;28;20495;-77
2022/07/26 07:04:55;;;;;;;4.40;2.60;;;20.90;99.90;;;;;;4986285;28;20459;-76
2022/07/26 07:07:22;;;;;;;5.63;2.50;;;21.00;99.90;;;;;;4987379;28;20455;-76
2022/07/26 07:09:50;;;;;;;3.93;2.50;;;21.00;99.90;;;;;;4987091;28;20455;-76
2022/07/26 07:12:17;;;;;;;6.23;2.70;;;21.00;99.90;;;;;;4986775;28;20476;-76
2022/07/26 07:14:44;;;;;;;4.40;2.67;;;21.00;99.90;;;;;;4986583;28;20471;-76
2022/07/26 07:17:11;;;;;;;5.20;3.03;;;21.10;99.90;;;;;;4985388;28;20452;-76
2022/07/26 07:19:38;;;;;;;11.90;2.73;;;21.10;99.90;;;;;;4987097;28;20814;-76
2022/07/26 07:22:10;;;;;;;7.90;2.40;;;21.20;99.90;;;;;;4986465;28;21082;-76
2022/07/26 07:24:37;;;;;;;7.70;2.47;;;21.20;99.90;;;;;;4985725;28;20948;-76
2022/07/26 07:27:05;;;;;;;5.00;2.53;;;21.30;99.90;;;;;;4986586;28;20500;-76
2022/07/26 07:29:32;;;;;;;7.60;2.70;;;21.30;99.90;;;;;;4986635;28;20455;-76
2022/07/26 07:31:59;;;;;;;6.30;2.33;;;21.30;99.90;;;;;;4986600;28;20490;-76
2022/07/26 07:34:26;;;;;;;5.87;2.40;;;21.30;99.90;;;;;;4986074;28;20471;-77
2022/07/26 07:36:53;;;;;;;3.50;2.03;;;21.30;99.90;;;;;;4986023;28;20952;-76
2022/07/26 07:39:20;;;;;;;7.43;2.33;;;21.40;99.90;;;;;;4986544;28;20916;-76
2022/07/26 07:41:47;;;;;;;4.67;1.97;;;21.40;99.90;;;;;;4986679;28;20851;-76
2022/07/26 07:44:16;;;;;;;5.03;1.80;;;21.50;99.90;;;;;;4985559;28;20944;-76
2022/07/26 07:46:42;;;;;;;2.13;1.70;;;21.50;99.90;;;;;;4986433;28;20495;-76
2022/07/26 07:49:10;;;;;;;3.43;1.93;;;21.50;99.90;;;;;;4986674;28;20836;-76
2022/07/26 07:51:37;;;;;;;2.60;1.70;;;21.60;99.90;;;;;;4986678;28;20645;-76
2022/07/26 07:54:05;;;;;;;5.27;1.70;;;21.60;99.90;;;;;;4986067;28;20541;-76
2022/07/26 07:56:31;;;;;;;8.50;1.67;;;21.70;99.90;;;;;;4986750;28;20452;-76
2022/07/26 07:58:58;;;;;;;4.97;2.03;;;21.70;99.90;;;;;;4986908;28;20486;-76
2022/07/26 08:01:26;;;;;;;7.63;2.33;;;21.80;99.90;;;;;;4986703;28;20498;-76
2022/07/26 08:03:53;;;;;;;4.13;2.03;;;21.80;99.90;;;;;;4986446;28;20959;-76
2022/07/26 08:06:20;;;;;;;6.57;1.63;;;21.90;99.90;;;;;;4984525;28;20499;-76
2022/07/26 08:08:47;;;;;;;3.80;2.30;;;22.00;99.90;;;;;;4985038;28;20963;-76
2022/07/26 08:11:14;;;;;;;4.10;1.60;;;22.10;99.90;;;;;;4986364;28;20488;-76
2022/07/26 08:13:41;;;;;;;9.13;1.97;;;22.10;99.90;;;;;;4986124;28;20873;-75
2022/07/26 08:16:08;;;;;;;3.20;1.60;;;22.20;99.90;;;;;;4985714;28;20458;-75
2022/07/26 08:18:36;;;;;;;4.33;1.50;;;22.20;99.90;;;;;;4985764;28;20926;-75
2022/07/26 08:21:03;;;;;;;3.50;1.70;;;22.30;99.90;;;;;;4984490;28;21003;-76
2022/07/26 08:23:30;;;;;;;4.50;1.80;;;22.30;99.90;;;;;;4986073;28;20452;-75
2022/07/26 08:25:57;;;;;;;5.00;2.07;;;22.40;99.90;;;;;;4985099;28;21047;-75
2022/07/26 08:28:25;;;;;;;3.60;1.80;;;22.40;99.90;;;;;;4985987;28;20467;-76
2022/07/26 08:30:52;;;;;;;2.83;1.63;;;22.40;99.90;;;;;;4986285;28;20487;-75
2022/07/26 08:33:18;;;;;;;3.30;1.80;;;22.50;99.90;;;;;;4985829;28;20467;-75
2022/07/26 08:35:47;;;;;;;3.47;2.40;;;22.40;99.90;;;;;;4988099;28;20566;-77
2022/07/26 08:38:13;;;;;;;2.97;1.50;;;22.40;99.90;;;;;;4990411;28;20470;-76
2022/07/26 08:40:40;;;;;;;2.20;1.57;;;22.40;99.90;;;;;;4989712;28;20489;-76
2022/07/26 08:43:07;;;;;;;6.07;1.87;;;22.60;99.90;;;;;;4989910;28;20462;-76
2022/07/26 08:45:34;;;;;;;4.37;1.77;;;22.60;99.90;;;;;;4989259;28;20459;-74
2022/07/26 08:48:01;;;;;;;4.70;1.50;;;22.80;99.90;;;;;;4990006;28;20455;-74
2022/07/26 08:50:29;;;;;;;5.53;1.60;;;22.90;99.90;;;;;;4989547;28;21162;-74
2022/07/26 08:53:00;;;;;;;2.80;1.70;;;22.90;99.90;;;;;;4989535;28;20467;-74
2022/07/26 08:55:28;;;;;;;6.57;1.40;;;23.00;99.90;;;;;;4989063;28;20440;-74
2022/07/26 08:57:54;;;;;;;3.70;1.67;;;22.90;99.90;;;;;;4989197;28;20931;-75
2022/07/26 09:00:24;;;;;;;5.67;1.50;;;22.90;99.90;;;;;;4989720;28;20471;-74
2022/07/26 09:02:51;;;;;;;3.43;1.47;;;22.90;99.90;;;;;;4989557;28;20510;-75
2022/07/26 09:05:19;;;;;;;3.93;1.30;;;22.90;99.90;;;;;;4988864;28;20469;-74
2022/07/26 09:07:46;;;;;;;3.90;1.40;;;22.90;99.90;;;;;;4989288;28;20494;-74
2022/07/26 09:10:15;;;;;;;3.30;1.17;;;22.90;99.90;;;;;;4989409;28;20456;-74
2022/07/26 09:12:43;;;;;;;2.30;1.30;;;22.90;99.90;;;;;;4989423;28;20459;-75
2022/07/26 09:15:19;;;;;;;6.90;1.47;;;23.00;99.90;;;;;;4988887;28;20456;-74
2022/07/26 09:17:48;;;;;;;4.13;1.40;;;23.10;99.90;;;;;;4989443;28;20439;-74
2022/07/26 09:20:17;;;;;;;6.17;1.27;;;23.20;99.90;;;;;;4989102;28;20471;-69
2022/07/26 09:22:57;;;;;;;4.47;1.47;;;23.30;99.90;;;;;;4989213;28;20461;-68
2022/07/26 09:25:27;;;;;;;3.63;1.60;;;23.50;99.90;;;;;;4988476;28;20459;-75
2022/07/26 09:27:54;;;;;;;2.47;1.30;;;23.50;99.90;;;;;;4989024;28;20495;-75
2022/07/26 09:30:21;;;;;;;3.33;1.40;;;23.60;99.90;;;;;;4988793;28;20465;-74
2022/07/26 09:33:01;;;;;;;5.77;1.57;;;23.70;99.90;;;;;;4988642;28;20459;-74
2022/07/26 09:35:29;;;;;;;3.10;1.40;;;23.70;99.90;;;;;;4988199;28;20467;-75
2022/07/26 09:37:56;;;;;;;4.60;1.60;;;23.70;99.90;;;;;;4989020;28;20570;-75
2022/07/26 09:40:23;;;;;;;2.20;1.33;;;23.80;99.90;;;;;;4988786;28;20543;-72
2022/07/26 09:42:56;;;;;;;2.40;1.20;;;23.80;99.90;;;;;;4988680;28;20483;-76
2022/07/26 09:45:24;;;;;;;9.43;1.40;;;23.80;99.90;;;;;;4988399;28;20447;-74
2022/07/26 09:47:51;;;;;;;6.20;1.63;;;23.80;99.90;;;;;;4987867;28;20498;-75
2022/07/26 09:50:19;;;;;;;8.17;1.43;;;23.90;99.90;;;;;;4988550;28;20964;-75
2022/07/26 09:53:06;;;;;;;3.43;1.30;;;23.90;99.90;;;;;;4988203;28;20499;-74
2022/07/26 09:55:33;;;;;;;4.87;1.33;;;23.90;99.90;;;;;;4988085;28;20452;-75
2022/07/26 09:58:05;;;;;;;2.40;1.77;;;24.00;99.90;;;;;;4988418;28;20481;-75
2022/07/26 10:00:33;;;;;;;6.10;1.70;;;24.00;99.90;;;;;;4986993;28;20452;-75
2022/07/26 10:03:01;;;;;;;6.73;1.30;;;24.10;99.90;;;;;;4987264;28;20978;-75
2022/07/26 10:05:28;;;;;;;1.63;1.30;;;24.10;99.90;;;;;;4987746;28;20463;-75
2022/07/26 10:07:58;;;;;;;3.03;1.27;;;24.20;99.90;;;;;;4987064;28;20495;-75
2022/07/26 10:10:28;;;;;;;3.03;1.07;;;24.20;99.90;;;;;;4986685;28;20483;-75
2022/07/26 10:12:55;;;;;;;2.70;1.30;;;24.30;99.90;;;;;;4988077;28;20984;-75
2022/07/26 10:15:39;;;;;;;2.87;1.20;;;24.30;99.90;;;;;;4987315;28;20457;-75
2022/07/26 10:18:07;;;;;;;3.23;1.73;;;24.30;99.90;;;;;;4988158;28;21074;-75
2022/07/26 10:20:46;;;;;;;2.53;1.40;;;24.40;99.90;;;;;;4986119;28;20852;-75
2022/07/26 10:23:32;;;;;;;1.90;1.20;;;24.40;99.90;;;;;;4988154;28;20952;-75
2022/07/26 10:26:00;;;;;;;3.00;1.50;;;24.40;99.90;;;;;;4986852;28;20459;-74
2022/07/26 10:28:28;;;;;;;5.07;1.60;;;24.50;99.90;;;;;;4988060;28;20471;-75
2022/07/26 10:31:28;;;;;;;1.70;1.23;;;24.50;99.90;;;;;;4987777;28;21103;-75
2022/07/26 10:33:56;;;;;;;1.73;1.23;;;24.60;99.90;;;;;;4987820;28;20535;-75
2022/07/26 10:36:31;;;;;;;2.03;1.40;;;24.60;99.90;;;;;;4987583;28;20455;-77
2022/07/26 10:39:00;;;;;;;8.50;1.40;;;24.60;99.90;;;;;;4987994;28;20471;-75
2022/07/26 10:41:39;;;;;;;1.50;1.17;;;24.70;99.90;;;;;;4987300;28;20493;-75
2022/07/26 10:44:16;;;;;;;4.77;1.50;;;24.70;99.90;;;;;;4986479;28;20444;-74
2022/07/26 10:47:14;;;;;;;4.33;1.37;;;24.70;99.90;;;;;;4987372;28;20515;-69
2022/07/26 10:49:44;;;;;;;3.57;1.40;;;24.80;99.90;;;;;;4987143;28;20456;-75
2022/07/26 10:52:14;;;;;;;2.47;1.60;;;24.80;99.90;;;;;;4987022;28;20488;-75
2022/07/26 10:55:18;;;;;;;3.13;1.37;;;24.80;99.90;;;;;;4986386;28;20813;-75
2022/07/26 10:57:49;;;;;;;4.10;1.20;;;24.80;99.90;;;;;;4986954;28;20454;-75
2022/07/26 11:00:26;;;;;;;7.70;1.50;;;24.80;99.90;;;;;;4986972;28;20463;-75
2022/07/26 11:02:57;;;;;;;1.93;1.47;;;24.90;99.90;;;;;;4987392;28;20446;-75
2022/07/26 11:05:29;;;;;;;3.40;1.20;;;24.80;99.90;;;;;;4986655;28;20440;-75
2022/07/26 11:08:00;;;;;;;2.73;1.37;;;24.90;99.90;;;;;;4987146;28;20530;-75
2022/07/26 11:10:30;;;;;;;3.80;1.40;;;25.00;99.90;;;;;;4986978;28;20514;-75
2022/07/26 11:13:05;;;;;;;3.53;1.50;;;25.00;99.90;;;;;;4987070;28;20563;-75
2022/07/26 11:15:32;;;;;;;5.60;1.70;;;25.00;99.90;;;;;;4986382;28;20463;-75
2022/07/26 11:18:23;;;;;;;3.20;1.40;;;25.10;99.90;;;;;;4987116;28;20459;-74
2022/07/26 11:20:53;;;;;;;2.40;1.07;;;25.20;99.90;;;;;;4986605;28;20484;-75
2022/07/26 11:23:29;;;;;;;2.50;1.87;;;25.20;99.90;;;;;;4986858;28;20811;-74
2022/07/26 11:26:04;;;;;;;3.83;1.07;;;25.30;99.90;;;;;;4986597;28;20882;-74
2022/07/26 11:28:46;;;;;;;1.83;1.10;;;25.40;99.90;;;;;;4987240;28;20505;-74
2022/07/26 11:31:14;;;;;;;3.90;1.70;;;25.40;99.90;;;;;;4987409;28;20519;-74
2022/07/26 11:33:45;;;;;;;2.30;1.30;;;25.40;99.90;;;;;;4987356;28;21538;-74
2022/07/26 11:36:12;;;;;;;2.47;1.30;;;25.40;99.90;;;;;;4985997;28;20448;-75
2022/07/26 11:38:47;;;;;;;5.40;1.30;;;25.40;99.90;;;;;;4987493;28;20465;-74
2022/07/26 11:41:15;;;;;;;2.20;1.40;;;25.50;99.90;;;;;;4986662;28;20481;-73
2022/07/26 11:43:42;;;;;;;1.60;1.30;;;25.50;99.90;;;;;;4987156;28;20467;-74
2022/07/26 11:46:12;;;;;;;5.50;1.20;;;25.60;99.90;;;;;;4986174;28;20471;-74
2022/07/26 11:48:44;;;;;;;3.77;1.30;;;25.60;99.90;;;;;;4986844;28;20557;-74
2022/07/26 11:51:14;;;;;;;2.87;1.20;;;25.70;99.90;;;;;;4986775;28;20575;-75
2022/07/26 11:53:41;;;;;;;1.63;1.20;;;25.80;99.90;;;;;;4986089;28;20948;-75
2022/07/26 11:56:16;;;;;;;1.67;1.20;;;25.80;99.90;;;;;;4985910;28;20894;-74
2022/07/26 11:58:45;;;;;;;2.13;1.10;;;25.90;99.90;;;;;;4986438;28;20526;-75
2022/07/26 12:01:14;;;;;;;1.50;1.00;;;25.90;99.90;;;;;;4985928;28;20881;-75
2022/07/26 12:03:43;;;;;;;1.23;1.00;;;26.00;99.90;;;;;;4986328;28;20820;-75
2022/07/26 12:06:13;;;;;;;1.27;0.90;;;26.00;99.90;;;;;;4985385;28;20857;-75
2022/07/26 12:08:42;;;;;;;2.70;1.40;;;26.00;99.90;;;;;;4985713;28;20505;-74
2022/07/26 12:11:09;;;;;;;2.87;1.30;;;25.90;99.90;;;;;;4985593;28;20479;-75
2022/07/26 12:13:53;;;;;;;5.03;1.60;;;25.80;99.90;;;;;;4986395;28;20455;-75
2022/07/26 12:16:43;;;;;;;2.17;1.00;;;25.80;99.90;;;;;;4985194;28;20462;-75
2022/07/26 12:19:24;;;;;;;1.80;1.30;;;25.70;99.90;;;;;;4984334;28;20464;-75
2022/07/26 12:21:54;;;;;;;1.57;1.10;;;25.60;99.90;;;;;;4986161;28;20483;-75
2022/07/26 12:24:36;;;;;;;2.17;1.20;;;25.60;99.90;;;;;;4985332;28;20460;-75
2022/07/26 12:27:08;;;;;;;1.90;1.03;;;25.50;99.90;;;;;;4985654;28;21268;-75
2022/07/26 12:29:36;;;;;;;2.13;1.13;;;25.70;99.90;;;;;;4985804;28;21031;-74
2022/07/26 12:32:08;;;;;;;5.37;2.07;;;25.70;99.90;;;;;;4985848;28;20530;-74
2022/07/26 12:34:36;;;;;;;1.57;1.07;;;25.80;99.90;;;;;;4985366;28;20460;-74
2022/07/26 12:37:12;;;;;;;3.53;1.23;;;25.70;99.90;;;;;;4985520;28;20956;-74
2022/07/26 12:39:40;;;;;;;1.50;0.97;;;25.70;99.90;;;;;;4985669;28;20916;-75
2022/07/26 12:42:27;;;;;;;1.30;1.00;;;25.80;99.90;;;;;;4985895;28;20501;-74
2022/07/26 12:44:54;;;;;;;5.23;1.10;;;25.90;99.90;;;;;;4985240;28;20477;-74
2022/07/26 12:47:21;;;;;;;2.10;1.30;;;25.90;99.90;;;;;;4985418;28;20501;-74
2022/07/26 12:49:49;;;;;;;2.33;1.00;;;25.90;99.90;;;;;;4985866;28;20460;-74
2022/07/26 12:52:20;;;;;;;1.97;1.20;;;25.90;99.90;;;;;;4985845;28;20479;-74
2022/07/26 12:54:48;;;;;;;2.77;1.20;;;25.90;99.90;;;;;;4985072;28;20486;-75
2022/07/26 12:57:16;;;;;;;1.43;1.17;;;26.00;99.90;;;;;;4985877;28;20454;-74
2022/07/26 12:59:43;;;;;;;0.90;0.80;;;26.00;99.90;;;;;;4985818;28;20522;-75
2022/07/26 13:02:11;;;;;;;1.43;1.00;;;26.00;99.90;;;;;;4985454;28;20488;-74
2022/07/26 13:04:38;;;;;;;3.07;1.17;;;25.90;99.90;;;;;;4984585;28;20971;-74
2022/07/26 13:07:06;;;;;;;1.50;1.10;;;25.90;99.90;;;;;;4985456;28;20467;-74
2022/07/26 13:09:35;;;;;;;4.67;1.37;;;25.80;99.90;;;;;;4985873;28;20579;-75
2022/07/26 13:12:03;;;;;;;2.50;1.10;;;25.90;99.90;;;;;;4985709;28;20509;-74
2022/07/26 13:14:32;;;;;;;1.47;1.10;;;25.80;99.90;;;;;;4985171;28;20505;-75
2022/07/26 13:16:58;;;;;;;2.60;1.10;;;25.80;99.90;;;;;;4985751;28;20463;-75
2022/07/26 13:19:25;;;;;;;1.70;0.90;;;25.80;99.90;;;;;;4985349;28;20456;-74
2022/07/26 13:21:52;;;;;;;6.30;1.00;;;25.80;99.90;;;;;;4987934;28;20479;-75
2022/07/26 13:24:19;;;;;;;3.70;1.27;;;25.70;99.90;;;;;;4988468;28;20552;-75
2022/07/26 13:26:47;;;;;;;2.00;1.17;;;25.70;99.90;;;;;;4989151;28;20466;-75
2022/07/26 13:29:14;;;;;;;2.90;1.20;;;25.70;99.90;;;;;;4988474;28;21005;-75
2022/07/26 13:31:41;;;;;;;2.23;1.27;;;25.60;99.90;;;;;;4989133;28;20480;-75
2022/07/26 13:34:08;;;;;;;3.20;1.20;;;25.60;99.90;;;;;;4988004;28;20466;-75
2022/07/26 13:36:35;;;;;;;2.93;1.27;;;25.60;99.90;;;;;;4988422;28;20463;-75
2022/07/26 13:39:02;;;;;;;2.90;1.13;;;25.70;99.90;;;;;;4988505;28;20459;-75
2022/07/26 13:41:30;;;;;;;1.67;1.20;;;25.70;99.90;;;;;;4988827;28;20482;-74
2022/07/26 13:43:58;;;;;;;1.77;1.17;;;25.80;99.90;;;;;;4988441;28;20463;-74
2022/07/26 13:46:28;;;;;;;2.57;1.10;;;25.80;99.90;;;;;;4988527;28;20811;-74
2022/07/26 13:48:55;;;;;;;2.70;1.00;;;25.80;99.90;;;;;;4988215;28;21003;-74
2022/07/26 13:51:22;;;;;;;1.60;1.10;;;25.80;99.90;;;;;;4988201;28;20491;-74
2022/07/26 13:53:49;;;;;;;1.57;0.93;;;25.90;99.90;;;;;;4988680;28;20473;-74
2022/07/26 13:56:16;;;;;;;3.87;1.10;;;26.00;99.90;;;;;;4987694;28;20466;-74
2022/07/26 13:58:43;;;;;;;1.90;1.07;;;26.10;99.90;;;;;;4988453;28;20464;-74
2022/07/26 14:01:11;;;;;;;1.47;1.00;;;26.20;99.90;;;;;;4988303;28;20498;-74
2022/07/26 14:03:38;;;;;;;3.97;1.00;;;26.20;99.90;;;;;;4988583;28;20470;-74
2022/07/26 14:06:05;;;;;;;2.40;1.10;;;26.20;99.90;;;;;;4987785;28;20487;-74
2022/07/26 14:08:32;;;;;;;3.00;1.07;;;26.30;99.90;;;;;;4988489;28;20500;-74
2022/07/26 14:10:58;;;;;;;1.73;1.20;;;26.40;99.90;;;;;;4988043;28;20490;-74
2022/07/26 14:13:25;;;;;;;1.33;1.07;;;26.40;99.90;;;;;;4988020;28;20502;-74
2022/07/26 14:15:52;;;;;;;1.50;1.00;;;26.40;99.90;;;;;;4986985;28;20456;-74
2022/07/26 14:18:20;;;;;;;3.23;1.10;;;26.40;99.90;;;;;;4987309;28;20547;-74
2022/07/26 14:20:47;;;;;;;2.60;0.90;;;26.40;99.90;;;;;;4987691;28;20483;-74
2022/07/26 14:23:14;;;;;;;2.50;1.13;;;26.40;99.90;;;;;;4987689;28;20472;-74
2022/07/26 14:25:41;;;;;;;1.43;1.10;;;26.50;99.90;;;;;;4986989;28;20814;-74
2022/07/26 14:28:07;;;;;;;1.83;1.10;;;26.50;99.90;;;;;;4987637;28;20775;-74
2022/07/26 14:30:35;;;;;;;5.77;1.10;;;26.60;99.90;;;;;;4987290;28;20480;-74
2022/07/26 14:33:03;;;;;;;5.37;1.40;;;26.60;99.90;;;;;;4987111;28;20466;-74
2022/07/26 14:35:31;;;;;;;1.80;1.00;;;26.70;99.90;;;;;;4986917;28;20946;-74
2022/07/26 14:37:58;;;;;;;1.93;1.10;;;26.80;99.90;;;;;;4988501;28;20462;-67
2022/07/26 14:40:25;;;;;;;1.73;1.23;;;26.80;99.90;;;;;;4988691;28;20468;-67
2022/07/26 14:42:52;;;;;;;3.40;1.30;;;27.00;99.90;;;;;;4988290;28;20546;-67
2022/07/26 14:45:19;;;;;;;1.80;1.20;;;27.10;99.90;;;;;;4987319;28;20547;-67
2022/07/26 14:47:46;;;;;;;2.63;1.00;;;27.20;99.90;;;;;;4987280;28;20483;-67
2022/07/26 14:50:14;;;;;;;1.90;0.87;;;27.30;99.90;;;;;;4987989;28;20461;-68
2022/07/26 14:52:44;;;;;;;1.50;1.03;;;27.20;99.90;;;;;;4988059;28;20464;-67
2022/07/26 14:55:11;;;;;;;1.60;1.10;;;27.20;99.90;;;;;;4987017;28;20439;-67
2022/07/26 14:57:39;;;;;;;1.83;1.10;;;27.20;99.90;;;;;;4987658;28;20836;-67
2022/07/26 15:00:08;;;;;;;3.73;1.00;;;27.30;99.90;;;;;;4987631;28;20521;-67
2022/07/26 15:02:35;;;;;;;2.13;1.00;;;27.30;99.90;;;;;;4987374;28;21340;-68
2022/07/26 15:05:02;;;;;;;2.60;1.20;;;27.40;99.90;;;;;;4987514;28;20463;-67
2022/07/26 15:07:29;;;;;;;1.50;1.20;;;27.40;99.90;;;;;;4987729;28;20987;-67
2022/07/26 15:09:57;;;;;;;2.17;1.30;;;27.40;99.90;;;;;;4987680;28;20487;-67
2022/07/26 15:12:24;;;;;;;1.60;1.00;;;27.40;99.90;;;;;;4987195;28;20844;-67
2022/07/26 15:14:50;;;;;;;2.90;1.37;;;27.50;99.90;;;;;;4987439;28;20796;-67
2022/07/26 15:17:17;;;;;;;3.50;0.87;;;27.60;99.90;;;;;;4987772;28;20455;-68
2022/07/26 15:19:44;;;;;;;5.03;1.20;;;27.70;99.90;;;;;;4987887;28;20456;-67
2022/07/26 15:22:11;;;;;;;4.80;1.00;;;27.80;99.90;;;;;;4987746;28;20563;-67
2022/07/26 15:24:38;;;;;;;2.60;1.03;;;27.90;99.90;;;;;;4987321;28;20486;-67
2022/07/26 15:27:06;;;;;;;5.57;1.30;;;28.00;99.90;;;;;;4987085;28;20466;-68
2022/07/26 15:29:34;;;;;;;2.60;1.00;;;28.10;99.90;;;;;;4986724;28;20527;-67
2022/07/26 15:32:01;;;;;;;3.53;1.00;;;28.00;99.90;;;;;;4987161;28;20491;-67
2022/07/26 15:34:28;;;;;;;1.57;1.10;;;28.00;99.90;;;;;;4986782;28;20911;-66
2022/07/26 15:36:55;;;;;;;1.47;1.07;;;28.00;99.90;;;;;;4987442;28;20562;-66
2022/07/26 15:39:22;;;;;;;1.90;1.07;;;28.00;99.90;;;;;;4987450;28;20456;-66
2022/07/26 15:41:49;;;;;;;1.30;1.00;;;28.10;99.90;;;;;;4986949;28;21017;-67
2022/07/26 15:44:19;;;;;;;2.90;1.50;;;28.00;99.90;;;;;;4985632;28;20471;-67
2022/07/26 15:46:47;;;;;;;1.53;0.90;;;28.00;99.50;;;;;;4987510;28;20475;-67
2022/07/26 15:49:16;;;;;;;1.40;0.90;;;28.00;98.40;;;;;;4986455;28;20522;-67
2022/07/26 15:51:43;;;;;;;2.17;1.03;;;28.00;98.50;;;;;;4986280;28;20490;-66
2022/07/26 15:54:12;;;;;;;1.90;1.13;;;27.90;99.80;;;;;;4985250;28;20460;-67
2022/07/26 15:56:39;;;;;;;2.50;1.17;;;27.90;99.80;;;;;;4986283;28;20527;-67
2022/07/26 15:59:07;;;;;;;1.87;1.00;;;27.90;99.90;;;;;;4986627;28;20462;-67
2022/07/26 16:01:36;;;;;;;3.80;1.37;;;27.90;99.90;;;;;;4986261;28;20498;-67
2022/07/26 16:04:04;;;;;;;2.60;1.37;;;28.00;99.90;;;;;;4985742;28;20455;-67
2022/07/26 16:06:32;;;;;;;2.13;1.20;;;28.10;99.90;;;;;;4986098;28;20786;-67
2022/07/26 16:09:00;;;;;;;3.40;1.40;;;28.00;99.90;;;;;;4986098;28;20513;-67
2022/07/26 16:11:27;;;;;;;1.33;1.00;;;28.00;99.90;;;;;;4986266;28;20498;-67
2022/07/26 16:13:54;;;;;;;3.73;1.20;;;28.00;99.90;;;;;;4986200;28;20944;-67
2022/07/26 16:16:21;;;;;;;2.70;1.47;;;28.00;99.90;;;;;;4985469;28;20558;-67
2022/07/26 16:18:50;;;;;;;1.77;1.00;;;28.10;99.90;;;;;;4985895;28;21378;-67
2022/07/26 16:21:17;;;;;;;3.67;1.27;;;28.10;99.90;;;;;;4986002;28;20972;-67
2022/07/26 16:23:44;;;;;;;2.67;1.20;;;28.20;99.90;;;;;;4985924;28;20978;-67
2022/07/26 16:26:11;;;;;;;2.80;1.17;;;28.30;99.90;;;;;;4985613;28;20948;-68
2022/07/26 16:28:38;;;;;;;3.00;1.27;;;28.40;99.90;;;;;;4986004;28;20491;-68
2022/07/26 16:31:05;;;;;;;2.90;1.40;;;28.30;99.90;;;;;;4986568;28;20487;-68
2022/07/26 16:33:32;;;;;;;2.67;1.07;;;28.30;99.50;;;;;;4986815;28;20471;-69
2022/07/26 16:36:00;;;;;;;3.10;1.30;;;28.40;99.90;;;;;;4985711;28;20483;-68
2022/07/26 16:38:27;;;;;;;3.83;1.43;;;28.40;99.90;;;;;;4985913;28;20468;-68
2022/07/26 16:40:53;;;;;;;1.70;1.20;;;28.30;99.50;;;;;;4986406;28;20830;-68
2022/07/26 16:43:20;;;;;;;1.73;1.30;;;28.30;99.60;;;;;;4985852;28;20468;-67
2022/07/26 16:45:47;;;;;;;2.00;1.30;;;28.30;99.70;;;;;;4985607;28;20486;-68
2022/07/26 16:48:15;;;;;;;1.77;1.20;;;28.30;99.90;;;;;;4986692;28;20591;-69
2022/07/26 16:50:42;;;;;;;5.40;1.50;;;28.30;99.10;;;;;;4986487;28;20493;-70
2022/07/26 16:53:10;;;;;;;2.43;1.50;;;28.20;99.00;;;;;;4986421;28;20490;-68